createdAt,value
2018-04-25T00:00:01.824Z,8.10
2018-04-25T00:02:30.265Z,8.10
2018-04-25T00:04:58.877Z,8.10
2018-04-25T00:07:27.272Z,8.20
2018-04-25T00:09:56.321Z,8.20
2018-04-25T00:12:24.707Z,8.20
2018-04-25T00:14:53.111Z,8.20
2018-04-25T00:17:21.526Z,8.10
2018-04-25T00:19:49.943Z,8.10
2018-04-25T00:22:18.296Z,8.00
2018-04-25T00:24:46.860Z,7.90
2018-04-25T00:27:15.283Z,7.90
2018-04-25T00:29:43.727Z,7.90
2018-04-25T00:32:13.260Z,7.80
2018-04-25T00:34:41.815Z,7.80
2018-04-25T00:37:11.163Z,7.80
2018-04-25T00:39:39.539Z,7.80
2018-04-25T00:42:07.927Z,7.80
2018-04-25T00:44:36.469Z,7.90
2018-04-25T00:47:05.599Z,7.90
2018-04-25T00:49:34.972Z,8.00
2018-04-25T00:52:04.114Z,8.00
2018-04-25T00:54:34.183Z,8.00
2018-04-25T00:57:02.820Z,8.00
2018-04-25T00:59:31.256Z,8.00
2018-04-25T01:01:59.628Z,8.10
2018-04-25T01:04:28.007Z,8.10
2018-04-25T01:06:56.424Z,8.00
2018-04-25T01:09:24.826Z,8.00
2018-04-25T01:11:53.599Z,7.90
2018-04-25T01:14:22.141Z,7.90
2018-04-25T01:16:50.555Z,7.90
2018-04-25T01:19:18.961Z,7.90
2018-04-25T01:21:48.884Z,7.90
2018-04-25T01:24:17.361Z,7.80
2018-04-25T01:26:51.659Z,7.80
2018-04-25T01:29:20.850Z,7.70
2018-04-25T01:31:49.291Z,7.70
2018-04-25T01:34:26.340Z,7.70
2018-04-25T01:40:03.602Z,7.60
2018-04-25T01:42:37.671Z,7.60
2018-04-25T01:48:29.482Z,7.80
2018-04-25T01:50:58.334Z,7.70
2018-04-25T01:53:38.492Z,7.70
2018-04-25T01:56:18.756Z,7.70
2018-04-25T01:58:59.753Z,7.80
2018-04-25T02:01:28.431Z,7.70
2018-04-25T02:03:59.282Z,7.80
2018-04-25T02:06:27.707Z,7.70
2018-04-25T02:08:56.159Z,7.80
2018-04-25T02:11:24.705Z,7.80
2018-04-25T02:13:53.182Z,7.90
2018-04-25T02:16:21.660Z,8.00
2018-04-25T02:18:50.066Z,7.90
2018-04-25T02:21:19.248Z,7.90
2018-04-25T02:23:48.555Z,7.90
2018-04-25T02:26:17.022Z,7.90
2018-04-25T02:28:45.431Z,8.00
2018-04-25T02:31:13.794Z,8.10
2018-04-25T02:33:44.462Z,8.00
2018-04-25T02:36:13.248Z,8.00
2018-04-25T02:38:41.735Z,8.00
2018-04-25T02:41:10.113Z,8.00
2018-04-25T02:43:38.567Z,8.00
2018-04-25T02:46:07.909Z,8.00
2018-04-25T02:48:36.296Z,8.00
2018-04-25T02:51:04.719Z,8.00
2018-04-25T02:53:33.303Z,8.00
2018-04-25T02:56:02.989Z,8.00
2018-04-25T02:58:32.296Z,7.90
2018-04-25T03:01:00.671Z,8.00
2018-04-25T03:03:29.074Z,8.00
2018-04-25T03:05:58.256Z,8.00
2018-04-25T03:08:26.697Z,8.00
2018-04-25T03:10:55.116Z,8.00
2018-04-25T03:13:23.494Z,8.00
2018-04-25T03:15:51.919Z,8.00
2018-04-25T03:18:21.737Z,7.90
2018-04-25T03:20:50.135Z,7.90
2018-04-25T03:23:19.283Z,7.90
2018-04-25T03:25:47.742Z,7.90
2018-04-25T03:28:17.051Z,7.80
2018-04-25T03:30:45.453Z,7.80
2018-04-25T03:33:14.066Z,7.80
2018-04-25T03:35:42.643Z,7.80
2018-04-25T03:38:12.196Z,7.70
2018-04-25T03:40:41.252Z,7.70
2018-04-25T03:43:09.650Z,7.70
2018-04-25T03:45:38.116Z,7.70
2018-04-25T03:48:07.327Z,7.80
2018-04-25T03:50:35.718Z,7.80
2018-04-25T03:53:05.888Z,7.70
2018-04-25T03:55:34.311Z,7.70
2018-04-25T03:58:02.896Z,7.70
2018-04-25T04:00:31.709Z,7.80
2018-04-25T04:03:00.283Z,7.80
2018-04-25T04:05:28.669Z,7.80
2018-04-25T04:07:57.226Z,7.90
2018-04-25T04:10:25.627Z,7.90
2018-04-25T04:12:54.050Z,8.00
2018-04-25T04:15:22.661Z,8.00
2018-04-25T04:17:51.050Z,8.00
2018-04-25T04:20:19.435Z,8.10
2018-04-25T04:22:47.963Z,8.00
2018-04-25T04:25:17.964Z,8.00
2018-04-25T04:27:46.395Z,7.90
2018-04-25T04:30:15.575Z,7.90
2018-04-25T04:32:44.346Z,7.90
2018-04-25T04:35:13.026Z,8.00
2018-04-25T04:37:41.615Z,8.00
2018-04-25T04:40:10.295Z,8.00
2018-04-25T04:42:38.671Z,7.90
2018-04-25T04:45:07.107Z,7.90
2018-04-25T04:47:35.685Z,7.90
2018-04-25T04:50:05.973Z,7.90
2018-04-25T04:52:35.151Z,8.00
2018-04-25T04:55:04.406Z,8.00
2018-04-25T04:57:32.819Z,8.00
2018-04-25T05:00:01.208Z,8.00
2018-04-25T05:02:30.398Z,8.10
2018-04-25T05:04:58.824Z,8.10
2018-04-25T05:07:28.069Z,8.20
2018-04-25T05:09:57.206Z,8.20
2018-04-25T05:12:25.579Z,8.30
2018-04-25T05:14:53.952Z,8.40
2018-04-25T05:17:22.432Z,8.40
2018-04-25T05:19:52.555Z,8.40
2018-04-25T05:22:21.151Z,8.40
2018-04-25T05:24:50.218Z,8.40
2018-04-25T05:27:18.608Z,8.50
2018-04-25T05:29:47.148Z,8.60
2018-04-25T05:32:15.511Z,8.70
2018-04-25T05:34:43.870Z,8.80
2018-04-25T05:37:12.317Z,8.90
2018-04-25T05:39:40.811Z,9.00
2018-04-25T05:42:09.967Z,9.00
2018-04-25T05:44:39.180Z,9.10
2018-04-25T05:47:07.563Z,9.10
2018-04-25T05:49:35.987Z,9.20
2018-04-25T05:52:04.361Z,9.20
2018-04-25T05:54:36.157Z,9.40
2018-04-25T05:57:04.591Z,9.50
2018-04-25T05:59:33.050Z,9.70
2018-04-25T06:02:01.438Z,9.90
2018-04-25T06:04:29.859Z,10.00
2018-04-25T06:06:58.270Z,10.00
2018-04-25T06:09:26.691Z,10.10
2018-04-25T06:11:55.105Z,10.20
2018-04-25T06:14:23.548Z,10.10
2018-04-25T06:16:51.959Z,10.10
2018-04-25T06:19:20.523Z,10.10
2018-04-25T06:21:50.081Z,9.90
2018-04-25T06:24:18.572Z,9.90
2018-04-25T06:26:47.430Z,9.70
2018-04-25T06:29:15.814Z,9.80
2018-04-25T06:31:44.220Z,9.70
2018-04-25T06:34:13.367Z,9.50
2018-04-25T06:36:41.891Z,9.40
2018-04-25T06:39:11.778Z,9.40
2018-04-25T06:41:40.170Z,9.40
2018-04-25T06:44:08.546Z,9.30
2018-04-25T06:46:36.978Z,9.30
2018-04-25T06:49:06.454Z,9.40
2018-04-25T06:51:35.627Z,9.30
2018-04-25T06:54:04.059Z,9.30
2018-04-25T06:56:32.432Z,9.40
2018-04-25T06:59:01.039Z,9.50
2018-04-25T07:01:29.421Z,9.60
2018-04-25T07:03:58.591Z,9.50
2018-04-25T07:06:27.029Z,9.50
2018-04-25T07:08:55.420Z,9.40
2018-04-25T07:11:23.792Z,9.30
2018-04-25T07:13:52.208Z,9.40
2018-04-25T07:16:20.595Z,9.40
2018-04-25T07:18:49.152Z,9.50
2018-04-25T07:21:17.540Z,9.60
2018-04-25T07:23:48.148Z,9.80
2018-04-25T07:26:16.476Z,9.70
2018-04-25T07:28:45.372Z,10.20
2018-04-25T07:31:13.783Z,9.80
2018-04-25T07:33:42.162Z,9.70
2018-04-25T07:36:10.531Z,9.70
2018-04-25T07:38:38.956Z,9.70
2018-04-25T07:41:07.363Z,9.60
2018-04-25T07:43:35.944Z,9.60
2018-04-25T07:46:04.853Z,9.50
2018-04-25T07:48:33.395Z,9.50
2018-04-25T07:51:01.758Z,9.40
2018-04-25T07:53:31.271Z,9.20
2018-04-25T07:55:59.649Z,9.30
2018-04-25T07:58:28.027Z,9.40
2018-04-25T08:00:56.425Z,9.40
2018-04-25T08:03:24.841Z,9.60
2018-04-25T08:05:53.338Z,9.70
2018-04-25T08:08:21.666Z,9.70
2018-04-25T08:10:50.051Z,9.70
2018-04-25T08:13:30.154Z,9.60
2018-04-25T08:16:10.911Z,9.60
2018-04-25T08:18:51.077Z,9.60
2018-04-25T08:21:26.712Z,9.60
2018-04-25T08:23:55.904Z,9.50
2018-04-25T08:26:24.348Z,9.50
2018-04-25T08:28:52.760Z,9.40
2018-04-25T08:31:21.143Z,9.50
2018-04-25T08:33:50.272Z,9.50
2018-04-25T08:36:18.667Z,9.50
2018-04-25T08:38:47.807Z,9.80
2018-04-25T08:41:17.104Z,9.80
2018-04-25T08:43:45.477Z,9.80
2018-04-25T08:46:13.874Z,9.90
2018-04-25T08:48:42.253Z,9.80
2018-04-25T08:51:10.655Z,9.90
2018-04-25T08:53:39.052Z,10.00
2018-04-25T08:56:07.491Z,10.00
2018-04-25T08:58:35.907Z,10.10
2018-04-25T09:01:04.290Z,10.00
2018-04-25T09:03:33.551Z,10.20
2018-04-25T09:06:02.711Z,10.20
2018-04-25T09:08:31.075Z,10.10
2018-04-25T09:10:59.555Z,10.10
2018-04-25T09:13:29.147Z,9.90
2018-04-25T09:15:57.533Z,9.90
2018-04-25T09:18:25.918Z,9.80
2018-04-25T09:20:55.239Z,9.80
2018-04-25T09:23:23.609Z,9.80
2018-04-25T09:25:52.972Z,9.80
2018-04-25T09:28:21.852Z,9.80
2018-04-25T09:30:50.241Z,9.90
2018-04-25T09:33:18.799Z,9.90
2018-04-25T09:35:48.106Z,9.90
2018-04-25T09:38:16.523Z,9.90
2018-04-25T09:40:44.941Z,9.90
2018-04-25T09:43:13.342Z,10.00
2018-04-25T09:45:42.670Z,9.90
2018-04-25T09:48:11.263Z,9.90
2018-04-25T09:50:39.640Z,9.80
2018-04-25T09:53:08.027Z,9.70
2018-04-25T09:55:37.359Z,9.70
2018-04-25T09:58:05.979Z,9.70
2018-04-25T10:00:39.891Z,9.70
2018-04-25T10:03:14.877Z,9.70
2018-04-25T10:05:43.261Z,9.70
2018-04-25T10:08:11.804Z,9.70
2018-04-25T10:10:40.234Z,9.70
2018-04-25T10:13:08.602Z,9.70
2018-04-25T10:15:37.007Z,9.70
2018-04-25T10:18:05.567Z,9.70
2018-04-25T10:20:33.927Z,9.70
2018-04-25T10:23:02.328Z,9.70
2018-04-25T10:25:30.923Z,9.80
2018-04-25T10:27:59.315Z,9.80
2018-04-25T10:30:30.449Z,10.00
2018-04-25T10:32:58.844Z,10.00
2018-04-25T10:35:27.247Z,10.10
2018-04-25T10:37:55.695Z,10.30
2018-04-25T10:40:25.044Z,10.60
2018-04-25T10:42:54.366Z,10.60
2018-04-25T10:45:22.779Z,10.80
2018-04-25T10:47:51.291Z,10.70
2018-04-25T10:50:20.639Z,10.50
2018-04-25T10:52:49.017Z,10.50
2018-04-25T10:55:17.437Z,10.50
2018-04-25T10:57:46.007Z,10.40
2018-04-25T11:00:14.429Z,10.20
2018-04-25T11:02:42.874Z,10.10
2018-04-25T11:05:12.359Z,10.20
2018-04-25T11:07:40.744Z,10.10
2018-04-25T11:10:09.186Z,10.20
2018-04-25T11:12:37.580Z,10.30
2018-04-25T11:15:06.168Z,10.50
2018-04-25T11:17:34.586Z,10.70
2018-04-25T11:20:03.787Z,10.70
2018-04-25T11:22:32.218Z,10.70
2018-04-25T11:25:00.779Z,10.70
2018-04-25T11:27:29.162Z,10.60
2018-04-25T11:29:57.733Z,10.60
2018-04-25T11:32:27.044Z,10.60
2018-04-25T11:34:55.674Z,10.60
2018-04-25T11:37:26.047Z,10.70
2018-04-25T11:39:54.459Z,10.80
2018-04-25T11:42:22.867Z,10.90
2018-04-25T11:44:52.195Z,11.00
2018-04-25T11:47:20.612Z,11.10
2018-04-25T11:49:49.171Z,11.20
2018-04-25T11:52:17.572Z,11.20
2018-04-25T11:54:45.997Z,11.10
2018-04-25T11:57:15.140Z,11.10
2018-04-25T11:59:43.622Z,11.10
2018-04-25T12:02:12.086Z,11.10
2018-04-25T12:04:41.220Z,11.20
2018-04-25T12:07:09.648Z,11.20
2018-04-25T12:09:38.228Z,11.40
2018-04-25T12:12:09.626Z,11.50
2018-04-25T12:14:38.512Z,11.60
2018-04-25T12:17:06.976Z,11.70
2018-04-25T12:19:35.536Z,11.80
2018-04-25T12:22:03.919Z,11.80
2018-04-25T12:24:32.311Z,11.90
2018-04-25T12:27:00.679Z,12.10
2018-04-25T12:29:29.184Z,12.20
2018-04-25T12:31:57.543Z,12.10
2018-04-25T12:34:25.918Z,12.20
2018-04-25T12:36:54.306Z,12.20
2018-04-25T12:39:22.678Z,12.30
2018-04-25T12:41:51.107Z,12.40
2018-04-25T12:44:19.533Z,12.50
2018-04-25T12:46:48.667Z,12.50
2018-04-25T12:49:17.051Z,12.50
2018-04-25T12:51:45.494Z,12.60
2018-04-25T12:54:14.642Z,12.50
2018-04-25T12:56:43.010Z,12.50
2018-04-25T12:59:11.454Z,12.40
2018-04-25T13:01:39.921Z,12.50
2018-04-25T13:04:09.107Z,12.50
2018-04-25T13:06:37.475Z,12.40
2018-04-25T13:09:05.983Z,12.60
2018-04-25T13:11:34.372Z,12.70
2018-04-25T13:14:02.775Z,12.90
2018-04-25T13:16:31.206Z,13.00
2018-04-25T13:18:59.591Z,13.10
2018-04-25T13:21:28.052Z,13.40
2018-04-25T13:23:56.406Z,13.40
2018-04-25T13:26:24.863Z,13.40
2018-04-25T13:28:57.030Z,13.40
2018-04-25T13:31:25.420Z,13.40
2018-04-25T13:33:54.757Z,13.10
2018-04-25T13:36:23.349Z,13.10
2018-04-25T13:38:52.495Z,12.90
2018-04-25T13:41:20.876Z,12.90
2018-04-25T13:43:49.391Z,12.50
2018-04-25T13:46:17.782Z,12.40
2018-04-25T13:48:46.151Z,12.50
2018-04-25T13:51:14.581Z,12.50
2018-04-25T13:53:43.142Z,12.50
2018-04-25T13:56:12.307Z,12.40
2018-04-25T13:58:40.823Z,12.50
2018-04-25T14:01:11.484Z,12.40
2018-04-25T14:03:39.909Z,12.40
2018-04-25T14:06:09.435Z,12.20
2018-04-25T14:08:37.852Z,12.10
2018-04-25T14:11:06.261Z,12.10
2018-04-25T14:13:35.748Z,12.10
2018-04-25T14:16:04.320Z,12.10
2018-04-25T14:18:32.900Z,12.40
2018-04-25T14:21:01.344Z,12.50
2018-04-25T14:23:30.257Z,12.50
2018-04-25T14:25:58.663Z,12.40
2018-04-25T14:28:28.167Z,12.10
2018-04-25T14:30:56.539Z,12.10
2018-04-25T14:33:24.958Z,12.10
2018-04-25T14:35:53.677Z,12.00
2018-04-25T14:38:22.816Z,12.20
2018-04-25T14:40:51.209Z,12.20
2018-04-25T14:43:19.619Z,12.40
2018-04-25T14:45:48.131Z,12.50
2018-04-25T14:48:16.701Z,12.60
2018-04-25T14:50:45.875Z,13.00
2018-04-25T14:53:15.069Z,13.20
2018-04-25T14:55:44.322Z,13.20
2018-04-25T14:58:12.860Z,13.20
2018-04-25T15:00:42.051Z,13.10
2018-04-25T15:03:10.461Z,13.00
2018-04-25T15:05:38.931Z,13.00
2018-04-25T15:08:07.303Z,13.00
2018-04-25T15:10:35.835Z,13.10
2018-04-25T15:13:04.202Z,13.00
2018-04-25T15:15:32.580Z,12.80
2018-04-25T15:18:00.959Z,12.50
2018-04-25T15:20:31.617Z,12.30
2018-04-25T15:23:00.003Z,12.10
2018-04-25T15:25:28.416Z,12.00
2018-04-25T15:27:56.863Z,12.10
2018-04-25T15:30:25.404Z,12.10
2018-04-25T15:32:53.801Z,12.10
2018-04-25T15:35:22.345Z,12.10
2018-04-25T15:37:50.759Z,12.10
2018-04-25T15:40:19.880Z,11.90
2018-04-25T15:42:48.569Z,11.90
2018-04-25T15:45:17.016Z,11.90
2018-04-25T15:47:46.143Z,11.70
2018-04-25T15:50:15.495Z,11.70
2018-04-25T15:52:43.887Z,11.60
2018-04-25T15:55:13.159Z,11.70
2018-04-25T15:57:41.601Z,11.70
2018-04-25T16:00:10.843Z,11.80
2018-04-25T16:02:40.141Z,11.90
2018-04-25T16:05:08.702Z,11.90
2018-04-25T16:07:37.179Z,11.90
2018-04-25T16:10:06.237Z,11.90
2018-04-25T16:12:34.621Z,12.00
2018-04-25T16:15:04.610Z,12.00
2018-04-25T16:17:33.011Z,12.10
2018-04-25T16:20:01.535Z,12.20
2018-04-25T16:22:29.943Z,12.10
2018-04-25T16:24:59.116Z,12.00
2018-04-25T16:27:27.531Z,12.00
2018-04-25T16:29:55.918Z,11.90
2018-04-25T16:32:24.305Z,12.00
2018-04-25T16:34:52.867Z,11.90
2018-04-25T16:37:22.594Z,11.70
2018-04-25T16:39:51.167Z,11.70
2018-04-25T16:42:20.323Z,11.50
2018-04-25T16:44:48.941Z,11.50
2018-04-25T16:47:18.231Z,11.20
2018-04-25T16:49:46.808Z,11.20
2018-04-25T16:52:15.225Z,11.10
2018-04-25T16:54:43.622Z,11.10
2018-04-25T16:57:12.839Z,11.20
2018-04-25T16:59:41.312Z,11.10
2018-04-25T17:04:50.740Z,11.20
2018-04-25T17:07:19.139Z,11.10
2018-04-25T17:09:47.683Z,10.90
2018-04-25T17:12:16.195Z,10.80
2018-04-25T17:14:44.563Z,10.80
2018-04-25T17:17:13.000Z,10.70
2018-04-25T17:19:42.131Z,10.60
2018-04-25T17:22:10.527Z,10.60
2018-04-25T17:24:38.892Z,10.50
2018-04-25T17:27:07.444Z,10.50
2018-04-25T17:29:36.932Z,10.50
2018-04-25T17:32:05.520Z,10.50
2018-04-25T17:34:33.884Z,10.50
2018-04-25T17:37:02.258Z,10.50
2018-04-25T17:39:30.719Z,10.40
2018-04-25T17:41:59.123Z,10.40
2018-04-25T17:44:27.515Z,10.30
2018-04-25T17:46:55.888Z,10.20
2018-04-25T17:49:24.241Z,10.20
2018-04-25T17:51:53.392Z,10.20
2018-04-25T17:54:21.936Z,10.10
2018-04-25T17:56:51.119Z,10.10
2018-04-25T17:59:21.467Z,10.10
2018-04-25T18:01:50.055Z,9.90
2018-04-25T18:04:18.435Z,9.80
2018-04-25T18:06:47.580Z,9.70
2018-04-25T18:09:17.193Z,9.70
2018-04-25T18:11:45.736Z,9.60
2018-04-25T18:14:14.103Z,9.50
2018-04-25T18:16:42.699Z,9.40
2018-04-25T18:19:11.119Z,9.40
2018-04-25T18:21:39.519Z,9.40
2018-04-25T18:24:07.878Z,9.40
2018-04-25T18:26:36.243Z,9.40
2018-04-25T18:29:04.603Z,9.30
2018-04-25T18:31:32.979Z,9.30
2018-04-25T18:34:01.546Z,9.20
2018-04-25T18:36:30.087Z,9.20
2018-04-25T18:38:58.635Z,9.00
2018-04-25T18:41:27.903Z,8.90
2018-04-25T18:43:56.301Z,8.90
2018-04-25T18:46:24.850Z,8.90
2018-04-25T18:48:54.034Z,8.80
2018-04-25T18:51:23.171Z,8.70
2018-04-25T18:53:51.561Z,8.70
2018-04-25T18:56:19.904Z,8.70
2018-04-25T18:58:48.239Z,8.60
2018-04-25T19:01:16.615Z,8.60
2018-04-25T19:03:45.971Z,8.60
2018-04-25T19:06:14.496Z,8.50
2018-04-25T19:08:42.932Z,8.60
2018-04-25T19:11:11.319Z,8.50
2018-04-25T19:13:39.682Z,8.50
2018-04-25T19:16:08.136Z,8.50
2018-04-25T19:18:36.548Z,8.50
2018-04-25T19:21:04.931Z,8.60
2018-04-25T19:23:33.313Z,8.60
2018-04-25T19:26:01.773Z,8.60
2018-04-25T19:28:30.293Z,8.70
2018-04-25T19:30:59.394Z,8.70
2018-04-25T19:33:27.851Z,8.70
2018-04-25T19:35:56.228Z,8.70
2018-04-25T19:38:25.631Z,8.70
2018-04-25T19:40:55.104Z,8.70
2018-04-25T19:43:24.296Z,8.70
2018-04-25T19:45:52.813Z,8.60
2018-04-25T19:48:21.197Z,8.60
2018-04-25T19:50:49.746Z,8.60
2018-04-25T19:53:18.144Z,8.60
2018-04-25T19:55:46.491Z,8.50
2018-04-25T19:58:14.859Z,8.50
2018-04-25T20:00:44.190Z,8.40
2018-04-25T20:03:12.880Z,8.40
2018-04-25T20:05:41.316Z,8.40
2018-04-25T20:08:09.735Z,8.20
2018-04-25T20:10:38.368Z,8.10
2018-04-25T20:13:06.760Z,8.00
2018-04-25T20:15:35.139Z,8.00
2018-04-25T20:18:04.283Z,8.10
2018-04-25T20:20:34.536Z,8.00
2018-04-25T20:23:03.111Z,8.00
2018-04-25T20:25:31.455Z,8.00
2018-04-25T20:27:59.950Z,7.90
2018-04-25T20:30:29.120Z,7.80
2018-04-25T20:32:57.522Z,7.80
2018-04-25T20:35:26.701Z,7.70
2018-04-25T20:37:55.852Z,7.70
2018-04-25T20:40:24.207Z,7.70
2018-04-25T20:42:52.615Z,7.60
2018-04-25T20:45:21.839Z,7.50
2018-04-25T20:47:50.364Z,7.50
2018-04-25T20:50:19.515Z,7.40
2018-04-25T20:52:47.898Z,7.40
2018-04-25T20:55:18.666Z,7.50
2018-04-25T20:57:47.071Z,7.40
2018-04-25T21:00:15.427Z,7.50
2018-04-25T21:02:43.788Z,7.50
2018-04-25T21:05:12.987Z,7.50
2018-04-25T21:07:41.344Z,7.50
2018-04-25T21:10:10.520Z,7.40
2018-04-25T21:12:38.867Z,7.40
2018-04-25T21:15:07.224Z,7.40
2018-04-25T21:17:36.359Z,7.40
2018-04-25T21:20:04.896Z,7.40
2018-04-25T21:22:34.979Z,7.40
2018-04-25T21:25:03.333Z,7.40
2018-04-25T21:27:31.691Z,7.30
2018-04-25T21:30:00.100Z,7.30
2018-04-25T21:32:28.452Z,7.20
2018-04-25T21:34:56.854Z,7.20
2018-04-25T21:37:25.227Z,7.20
2018-04-25T21:39:54.560Z,7.20
2018-04-25T21:42:23.068Z,7.20
2018-04-25T21:44:51.424Z,7.20
2018-04-25T21:47:19.808Z,7.20
2018-04-25T21:49:48.221Z,7.20
2018-04-25T21:52:16.588Z,7.30
2018-04-25T21:54:44.984Z,7.30
2018-04-25T21:57:15.370Z,7.30
2018-04-25T21:59:43.922Z,7.30
2018-04-25T22:02:13.036Z,7.40
2018-04-25T22:04:41.408Z,7.50
2018-04-25T22:07:09.820Z,7.50
2018-04-25T22:09:38.229Z,7.60
2018-04-25T22:12:06.592Z,7.60
2018-04-25T22:14:35.719Z,7.60
2018-04-25T22:17:04.112Z,7.50
2018-04-25T22:19:33.711Z,7.50
2018-04-25T22:22:02.071Z,7.50
2018-04-25T22:24:31.246Z,7.50
2018-04-25T22:26:59.590Z,7.50
2018-04-25T22:29:28.135Z,7.40
2018-04-25T22:31:57.276Z,7.40
2018-04-25T22:34:25.687Z,7.40
2018-04-25T22:36:54.042Z,7.40
2018-04-25T22:39:22.419Z,7.50
2018-04-25T22:41:50.943Z,7.50
2018-04-25T22:44:20.108Z,7.60
2018-04-25T22:46:48.460Z,7.60
2018-04-25T22:49:17.035Z,7.60
2018-04-25T22:51:45.399Z,7.70
2018-04-25T22:54:13.946Z,7.70
2018-04-25T22:56:42.366Z,7.80
2018-04-25T22:59:10.828Z,7.80
2018-04-25T23:01:39.189Z,7.80
2018-04-25T23:04:08.239Z,7.90
2018-04-25T23:06:36.779Z,7.90
2018-04-25T23:09:05.896Z,7.90
2018-04-25T23:11:34.292Z,8.00
2018-04-25T23:14:02.823Z,8.00
2018-04-25T23:16:31.359Z,7.90
2018-04-25T23:19:00.655Z,8.00
2018-04-25T23:21:29.085Z,8.00
2018-04-25T23:23:57.540Z,8.00
2018-04-25T23:26:25.906Z,8.00
2018-04-25T23:28:54.267Z,8.00
2018-04-25T23:31:23.427Z,8.00
2018-04-25T23:33:51.783Z,8.00
2018-04-25T23:36:21.087Z,8.10
2018-04-25T23:38:50.820Z,8.10
2018-04-25T23:41:19.603Z,8.20
2018-04-25T23:43:48.044Z,8.20
2018-04-25T23:46:16.386Z,8.20
2018-04-25T23:48:44.919Z,8.10
2018-04-25T23:51:13.479Z,8.10
2018-04-25T23:53:41.874Z,8.10
2018-04-25T23:56:10.240Z,8.10
2018-04-25T23:58:38.623Z,8.10
